createdAt,value
2023-03-20T00:01:55.802Z,18.47
2023-03-20T00:04:23.459Z,19.98
2023-03-20T00:06:51.184Z,18.70
2023-03-20T00:09:19.311Z,18.92
2023-03-20T00:11:49.565Z,18.88
2023-03-20T00:14:18.757Z,21.00
2023-03-20T00:16:48.876Z,20.27
2023-03-20T00:19:19.232Z,20.52
2023-03-20T00:21:48.012Z,19.73
2023-03-20T00:24:16.709Z,20.92
2023-03-20T00:26:45.789Z,20.15
2023-03-20T00:29:16.960Z,20.27
2023-03-20T00:31:45.082Z,21.38
2023-03-20T00:34:15.152Z,20.25
2023-03-20T00:36:44.651Z,20.83
2023-03-20T00:39:12.294Z,21.77
2023-03-20T00:41:43.359Z,22.35
2023-03-20T00:44:22.448Z,21.27
2023-03-20T00:46:52.144Z,20.23
2023-03-20T00:49:28.264Z,20.00
2023-03-20T00:51:58.240Z,21.50
2023-03-20T00:54:26.112Z,21.57
2023-03-20T00:56:57.378Z,21.48
2023-03-20T00:59:27.014Z,20.77
2023-03-20T01:01:54.759Z,21.17
2023-03-20T01:04:36.344Z,20.65
2023-03-20T01:07:06.196Z,21.73
2023-03-20T01:09:34.591Z,21.58
2023-03-20T01:12:02.770Z,21.42
2023-03-20T01:14:30.569Z,20.75
2023-03-20T01:17:01.232Z,23.13
2023-03-20T01:19:28.917Z,23.05
2023-03-20T01:21:56.883Z,24.13
2023-03-20T01:24:26.261Z,23.13
2023-03-20T01:26:54.806Z,24.17
2023-03-20T01:29:24.690Z,25.70
2023-03-20T01:31:53.483Z,25.43
2023-03-20T01:34:21.479Z,25.90
2023-03-20T01:36:52.391Z,25.58
2023-03-20T01:39:21.931Z,27.10
2023-03-20T01:41:52.092Z,25.38
2023-03-20T01:44:22.512Z,26.45
2023-03-20T01:46:51.371Z,24.38
2023-03-20T01:49:56.232Z,24.95
2023-03-20T01:52:23.943Z,24.10
2023-03-20T01:54:51.921Z,20.65
2023-03-20T01:57:23.020Z,24.13
2023-03-20T01:59:52.930Z,24.90
2023-03-20T02:02:22.897Z,23.27
2023-03-20T02:04:53.774Z,24.67
2023-03-20T02:07:23.075Z,22.20
2023-03-20T02:09:51.238Z,22.77
2023-03-20T02:12:19.544Z,23.17
2023-03-20T02:14:49.386Z,21.60
2023-03-20T02:17:17.068Z,23.60
2023-03-20T02:19:53.452Z,22.98
2023-03-20T02:22:54.710Z,24.65
2023-03-20T02:25:45.404Z,23.55
2023-03-20T02:28:34.698Z,22.17
2023-03-20T02:31:17.930Z,22.92
2023-03-20T02:34:17.434Z,21.67
2023-03-20T02:37:21.974Z,16.05
2023-03-20T02:39:57.654Z,19.67
2023-03-20T02:42:33.770Z,18.90
2023-03-20T02:45:05.700Z,18.25
2023-03-20T02:47:38.967Z,18.70
2023-03-20T02:50:14.908Z,18.40
2023-03-20T02:52:48.779Z,16.98
2023-03-20T02:55:18.514Z,17.98
2023-03-20T02:57:52.953Z,16.43
2023-03-20T03:00:26.441Z,17.45
2023-03-20T03:02:59.484Z,16.80
2023-03-20T03:05:31.994Z,15.63
2023-03-20T03:08:01.794Z,17.17
2023-03-20T03:10:31.917Z,17.52
2023-03-20T03:13:00.439Z,17.00
2023-03-20T03:15:30.720Z,17.65
2023-03-20T03:17:59.460Z,17.15
2023-03-20T03:20:30.825Z,17.20
2023-03-20T03:22:58.640Z,18.10
2023-03-20T03:25:29.862Z,18.47
2023-03-20T03:28:03.614Z,19.43
2023-03-20T03:30:32.802Z,18.73
2023-03-20T03:33:11.162Z,18.98
2023-03-20T03:35:39.575Z,19.35
2023-03-20T03:38:19.466Z,20.00
2023-03-20T03:40:54.337Z,19.63
2023-03-20T03:43:26.519Z,19.45
2023-03-20T03:45:56.505Z,20.05
2023-03-20T03:48:27.577Z,19.90
2023-03-20T03:50:57.439Z,20.37
2023-03-20T03:53:27.666Z,20.33
2023-03-20T03:55:59.821Z,21.65
2023-03-20T03:58:30.572Z,21.40
2023-03-20T04:00:59.826Z,21.90
2023-03-20T04:03:31.612Z,22.42
2023-03-20T04:06:00.043Z,21.15
2023-03-20T04:08:27.843Z,22.63
2023-03-20T04:10:56.963Z,22.30
2023-03-20T04:13:24.636Z,22.13
2023-03-20T04:15:52.439Z,20.98
2023-03-20T04:18:20.704Z,21.52
2023-03-20T04:20:48.867Z,21.55
2023-03-20T04:23:16.996Z,22.85
2023-03-20T04:25:44.656Z,22.05
2023-03-20T04:28:16.366Z,23.20
2023-03-20T04:30:48.234Z,21.75
2023-03-20T04:33:16.472Z,23.30
2023-03-20T04:35:44.200Z,22.23
2023-03-20T04:38:11.911Z,22.37
2023-03-20T04:40:39.562Z,22.85
2023-03-20T04:43:07.554Z,22.55
2023-03-20T04:45:36.958Z,20.48
2023-03-20T04:48:05.182Z,20.70
2023-03-20T04:50:32.855Z,20.57
2023-03-20T04:53:00.775Z,20.35
2023-03-20T04:55:28.394Z,20.55
2023-03-20T04:57:56.042Z,19.23
2023-03-20T05:00:23.765Z,19.10
2023-03-20T05:02:53.129Z,18.80
2023-03-20T05:05:20.803Z,18.00
2023-03-20T05:07:48.483Z,18.63
2023-03-20T05:10:16.549Z,19.25
2023-03-20T05:12:44.209Z,18.23
2023-03-20T05:15:12.553Z,17.42
2023-03-20T05:17:40.409Z,17.85
2023-03-20T05:20:11.033Z,17.63
2023-03-20T05:22:38.668Z,17.85
2023-03-20T05:25:07.111Z,17.15
2023-03-20T05:27:34.896Z,16.77
2023-03-20T05:30:02.566Z,18.05
2023-03-20T05:32:30.380Z,17.33
2023-03-20T05:34:58.016Z,16.85
2023-03-20T05:37:27.121Z,17.02
2023-03-20T05:39:54.982Z,17.13
2023-03-20T05:42:22.626Z,16.25
2023-03-20T05:44:50.270Z,16.88
2023-03-20T05:47:17.912Z,16.98
2023-03-20T05:49:45.614Z,15.48
2023-03-20T05:52:13.375Z,15.57
2023-03-20T05:54:42.431Z,15.18
2023-03-20T05:57:10.034Z,13.10
2023-03-20T05:59:37.689Z,13.90
2023-03-20T06:02:05.317Z,13.52
2023-03-20T06:04:33.076Z,13.70
2023-03-20T06:07:00.732Z,14.85
2023-03-20T06:09:28.805Z,13.38
2023-03-20T06:11:57.846Z,13.65
2023-03-20T06:14:25.784Z,13.05
2023-03-20T06:16:54.096Z,13.05
2023-03-20T06:19:21.784Z,12.37
2023-03-20T06:21:49.877Z,11.48
2023-03-20T06:24:17.882Z,10.90
2023-03-20T06:26:45.660Z,11.43
2023-03-20T06:29:14.941Z,8.65
2023-03-20T06:31:42.727Z,10.82
2023-03-20T06:34:10.438Z,11.05
2023-03-20T06:36:38.176Z,9.30
2023-03-20T06:39:06.475Z,10.65
2023-03-20T06:41:35.153Z,10.15
2023-03-20T06:44:03.749Z,11.02
2023-03-20T06:46:33.078Z,9.88
2023-03-20T06:49:01.380Z,10.45
2023-03-20T06:51:29.080Z,9.38
2023-03-20T06:53:56.749Z,8.88
2023-03-20T06:56:24.749Z,9.33
2023-03-20T06:58:52.409Z,9.60
2023-03-20T07:01:20.717Z,8.80
2023-03-20T07:03:50.504Z,8.77
2023-03-20T07:06:18.904Z,8.10
2023-03-20T07:08:46.635Z,7.80
2023-03-20T07:11:14.418Z,8.43
2023-03-20T07:13:42.144Z,9.13
2023-03-20T07:16:10.462Z,7.47
2023-03-20T07:18:38.427Z,8.77
2023-03-20T07:21:09.704Z,8.57
2023-03-20T07:23:37.816Z,6.85
2023-03-20T07:26:06.783Z,7.88
2023-03-20T07:28:34.494Z,6.63
2023-03-20T07:31:02.217Z,8.52
2023-03-20T07:33:29.932Z,8.73
2023-03-20T07:35:57.689Z,7.85
2023-03-20T07:38:26.837Z,7.68
2023-03-20T07:40:55.360Z,8.27
2023-03-20T07:43:23.256Z,8.45
2023-03-20T07:45:51.655Z,8.18
2023-03-20T07:48:19.381Z,8.13
2023-03-20T07:50:47.052Z,8.13
2023-03-20T07:53:14.907Z,8.95
2023-03-20T07:55:45.135Z,7.28
2023-03-20T07:58:12.800Z,7.88
2023-03-20T08:00:40.776Z,8.20
2023-03-20T08:03:09.078Z,8.05
2023-03-20T08:05:37.268Z,8.13
2023-03-20T08:08:05.758Z,6.88
2023-03-20T08:10:33.773Z,8.87
2023-03-20T08:13:02.877Z,8.00
2023-03-20T08:15:30.944Z,7.50
2023-03-20T08:17:58.859Z,8.38
2023-03-20T08:20:27.209Z,7.03
2023-03-20T08:22:54.914Z,7.05
2023-03-20T08:25:22.699Z,8.48
2023-03-20T08:27:50.768Z,7.88
2023-03-20T08:30:19.998Z,6.88
2023-03-20T08:32:47.978Z,7.30
2023-03-20T08:35:31.470Z,6.95
2023-03-20T08:38:03.898Z,7.78
2023-03-20T08:40:32.184Z,7.40
2023-03-20T08:42:59.930Z,7.18
2023-03-20T08:45:29.055Z,6.30
2023-03-20T08:47:56.825Z,6.78
2023-03-20T08:50:24.655Z,6.78
2023-03-20T08:52:52.468Z,5.90
2023-03-20T08:55:20.186Z,5.20
2023-03-20T08:57:48.167Z,5.27
2023-03-20T09:00:17.363Z,5.03
2023-03-20T09:02:46.514Z,4.65
2023-03-20T09:05:14.429Z,5.72
2023-03-20T09:07:42.184Z,4.60
2023-03-20T09:10:11.438Z,4.33
2023-03-20T09:12:39.389Z,3.87
2023-03-20T09:15:08.180Z,3.50
2023-03-20T09:17:35.962Z,3.30
2023-03-20T09:20:06.584Z,3.22
2023-03-20T09:22:34.370Z,2.85
2023-03-20T09:25:02.066Z,2.88
2023-03-20T09:27:45.527Z,3.05
2023-03-20T09:30:34.649Z,2.97
2023-03-20T09:33:02.587Z,3.25
2023-03-20T09:35:32.331Z,3.17
2023-03-20T09:38:00.052Z,3.17
2023-03-20T09:40:30.606Z,3.40
2023-03-20T09:43:03.804Z,3.58
2023-03-20T09:45:41.930Z,3.03
2023-03-20T09:48:16.063Z,2.70
2023-03-20T09:50:50.306Z,3.22
2023-03-20T09:53:22.043Z,2.60
2023-03-20T09:55:50.360Z,3.20
2023-03-20T09:58:22.366Z,3.60
2023-03-20T10:00:50.277Z,3.00
2023-03-20T10:03:20.538Z,3.13
2023-03-20T10:05:53.537Z,3.10
2023-03-20T10:08:25.002Z,2.97
2023-03-20T10:10:55.234Z,3.25
2023-03-20T10:16:40.995Z,3.67
2023-03-20T10:19:18.038Z,2.90
2023-03-20T10:21:49.589Z,3.22
2023-03-20T10:24:21.259Z,2.67
2023-03-20T10:26:53.105Z,2.78
2023-03-20T10:29:28.759Z,3.00
2023-03-20T10:32:00.431Z,3.20
2023-03-20T10:34:41.536Z,3.22
2023-03-20T10:37:22.265Z,2.47
2023-03-20T10:39:56.390Z,2.10
2023-03-20T10:42:27.702Z,2.30
2023-03-20T10:44:57.954Z,2.55
2023-03-20T10:47:28.537Z,2.10
2023-03-20T10:49:59.347Z,2.50
2023-03-20T10:52:32.372Z,1.85
2023-03-20T10:55:02.433Z,2.27
2023-03-20T10:57:32.119Z,1.67
2023-03-20T11:00:00.874Z,1.13
2023-03-20T11:05:25.633Z,2.13
2023-03-20T11:08:02.923Z,1.63
2023-03-20T11:10:33.406Z,1.90
2023-03-20T11:13:13.048Z,1.52
2023-03-20T11:15:41.176Z,1.20
2023-03-20T11:18:14.449Z,1.55
2023-03-20T11:20:46.816Z,1.60
2023-03-20T11:23:18.984Z,1.90
2023-03-20T11:25:51.498Z,2.00
2023-03-20T11:28:28.359Z,1.63
2023-03-20T11:31:04.853Z,1.60
2023-03-20T11:33:33.696Z,1.27
2023-03-20T11:36:01.510Z,1.60
2023-03-20T11:38:31.339Z,1.73
2023-03-20T11:40:59.078Z,1.80
2023-03-20T11:43:30.592Z,1.63
2023-03-20T11:46:00.707Z,1.92
2023-03-20T11:48:38.484Z,1.83
2023-03-20T11:51:08.686Z,1.50
2023-03-20T11:53:40.640Z,1.63
2023-03-20T11:56:11.897Z,1.48
2023-03-20T11:58:47.647Z,1.77
2023-03-20T12:01:15.685Z,1.70
2023-03-20T12:03:55.492Z,1.70
2023-03-20T12:06:26.347Z,1.40
2023-03-20T12:09:00.575Z,1.83
2023-03-20T12:11:46.550Z,1.67
2023-03-20T12:14:21.069Z,1.77
2023-03-20T12:16:51.161Z,1.90
2023-03-20T12:19:21.809Z,1.40
2023-03-20T12:21:55.351Z,2.17
2023-03-20T12:24:31.274Z,1.73
2023-03-20T12:27:02.188Z,1.75
2023-03-20T12:29:32.893Z,2.15
2023-03-20T12:32:04.305Z,2.80
2023-03-20T12:34:35.689Z,1.60
2023-03-20T12:37:03.379Z,1.45
2023-03-20T12:39:36.461Z,1.60
2023-03-20T12:42:10.657Z,2.20
2023-03-20T12:44:40.883Z,1.97
2023-03-20T12:47:18.043Z,2.50
2023-03-20T12:49:54.229Z,1.80
2023-03-20T12:52:30.727Z,2.27
2023-03-20T12:55:25.729Z,2.65
2023-03-20T12:58:07.467Z,2.50
2023-03-20T13:00:38.521Z,2.70
2023-03-20T13:03:11.958Z,2.60
2023-03-20T13:05:46.570Z,3.08
2023-03-20T13:08:32.484Z,3.13
2023-03-20T13:11:04.449Z,3.33
2023-03-20T13:13:35.005Z,2.65
2023-03-20T13:16:11.164Z,3.00
2023-03-20T13:18:48.614Z,3.15
2023-03-20T13:21:21.032Z,2.60
2023-03-20T13:23:53.923Z,2.45
2023-03-20T13:26:30.697Z,2.40
2023-03-20T13:29:03.609Z,2.80
2023-03-20T13:31:38.163Z,2.58
2023-03-20T13:34:14.198Z,2.80
2023-03-20T13:39:32.930Z,3.15
2023-03-20T13:42:02.983Z,2.92
2023-03-20T13:44:31.703Z,2.50
2023-03-20T13:47:02.275Z,2.70
2023-03-20T13:49:35.804Z,2.67
2023-03-20T13:52:08.300Z,2.50
2023-03-20T13:54:47.895Z,2.30
2023-03-20T13:57:27.513Z,2.80
2023-03-20T14:00:00.625Z,2.05
2023-03-20T14:02:55.048Z,2.53
2023-03-20T14:05:44.831Z,3.00
2023-03-20T14:08:32.547Z,2.25
2023-03-20T14:11:13.160Z,2.50
2023-03-20T14:13:45.397Z,2.55
2023-03-20T14:16:16.055Z,2.28
2023-03-20T14:18:44.964Z,1.98
2023-03-20T14:21:14.813Z,2.40
2023-03-20T14:23:47.054Z,2.28
2023-03-20T14:26:21.885Z,2.10
2023-03-20T14:29:00.838Z,2.47
2023-03-20T14:31:34.176Z,2.30
2023-03-20T14:34:14.268Z,2.50
2023-03-20T14:36:47.231Z,2.67
2023-03-20T14:39:27.477Z,2.40
2023-03-20T14:42:02.027Z,3.10
2023-03-20T14:44:39.937Z,3.30
2023-03-20T14:47:16.918Z,3.47
2023-03-20T14:49:51.857Z,3.00
2023-03-20T14:52:34.895Z,3.53
2023-03-20T14:55:30.440Z,3.78
2023-03-20T14:57:58.580Z,3.80
2023-03-20T15:00:30.024Z,3.53
2023-03-20T15:03:06.667Z,4.22
2023-03-20T15:05:36.414Z,4.80
2023-03-20T15:08:06.456Z,4.15
2023-03-20T15:10:37.329Z,4.38
2023-03-20T15:13:06.738Z,3.93
2023-03-20T15:15:55.933Z,4.37
2023-03-20T15:18:25.488Z,5.27
2023-03-20T15:20:53.729Z,5.20
2023-03-20T15:23:21.494Z,5.65
2023-03-20T15:25:50.722Z,5.80
2023-03-20T15:28:21.352Z,5.80
2023-03-20T15:30:51.062Z,6.00
2023-03-20T15:33:24.722Z,5.20
2023-03-20T15:35:52.905Z,5.53
2023-03-20T15:38:20.940Z,5.85
2023-03-20T15:40:51.451Z,5.50
2023-03-20T15:43:21.684Z,5.53
2023-03-20T15:45:50.742Z,5.80
2023-03-20T15:48:25.932Z,5.97
2023-03-20T15:50:56.316Z,5.95
2023-03-20T15:53:28.338Z,6.38
2023-03-20T15:56:16.983Z,7.05
2023-03-20T15:58:46.660Z,7.60
2023-03-20T16:01:18.935Z,8.13
2023-03-20T16:03:48.647Z,8.10
2023-03-20T16:06:20.748Z,9.73
2023-03-20T16:08:58.365Z,8.95
2023-03-20T16:11:26.817Z,8.38
2023-03-20T16:13:55.703Z,9.13
2023-03-20T16:16:25.134Z,9.82
2023-03-20T16:18:54.455Z,9.52
2023-03-20T16:21:24.700Z,10.50
2023-03-20T16:23:54.707Z,10.27
2023-03-20T16:26:24.448Z,9.60
2023-03-20T16:28:54.334Z,9.40
2023-03-20T16:31:24.144Z,10.30
2023-03-20T16:33:52.076Z,10.30
2023-03-20T16:36:23.824Z,10.27
2023-03-20T16:39:19.668Z,10.07
2023-03-20T16:41:50.201Z,10.50
2023-03-20T16:44:19.846Z,11.55
2023-03-20T16:47:00.754Z,11.50
2023-03-20T16:49:51.566Z,11.13
2023-03-20T16:52:43.303Z,11.32
2023-03-20T16:55:17.735Z,10.27
2023-03-20T16:57:48.327Z,9.55
2023-03-20T17:00:27.477Z,9.18
2023-03-20T17:03:08.319Z,9.10
2023-03-20T17:05:50.639Z,9.43
2023-03-20T17:08:28.791Z,9.25
2023-03-20T17:11:00.023Z,7.85
2023-03-20T17:13:27.732Z,8.32
2023-03-20T17:15:55.907Z,7.63
2023-03-20T17:18:24.113Z,7.95
2023-03-20T17:20:52.139Z,8.93
2023-03-20T17:23:23.792Z,8.35
2023-03-20T17:25:51.844Z,8.25
2023-03-20T17:28:21.957Z,8.10
2023-03-20T17:30:51.515Z,8.37
2023-03-20T17:33:21.091Z,8.50
2023-03-20T17:35:49.711Z,8.05
2023-03-20T17:38:19.937Z,8.00
2023-03-20T17:40:50.121Z,8.40
2023-03-20T17:43:19.511Z,8.30
2023-03-20T17:45:48.427Z,7.75
2023-03-20T17:48:18.088Z,8.57
2023-03-20T17:50:46.593Z,7.20
2023-03-20T17:53:16.892Z,8.40
2023-03-20T17:55:44.738Z,7.63
2023-03-20T17:58:18.413Z,7.60
2023-03-20T18:00:46.349Z,7.85
2023-03-20T18:03:15.323Z,8.17
2023-03-20T18:05:43.265Z,8.88
2023-03-20T18:08:14.612Z,8.18
2023-03-20T18:10:43.097Z,8.38
2023-03-20T18:13:10.878Z,9.00
2023-03-20T18:15:40.861Z,8.75
2023-03-20T18:18:08.983Z,9.80
2023-03-20T18:20:38.528Z,10.15
2023-03-20T18:23:06.432Z,10.30
2023-03-20T18:25:34.166Z,9.38
2023-03-20T18:28:03.404Z,9.77
2023-03-20T18:30:34.923Z,9.93
2023-03-20T18:33:04.465Z,9.07
2023-03-20T18:35:33.015Z,10.02
2023-03-20T18:38:00.754Z,9.73
2023-03-20T18:40:30.230Z,9.30
2023-03-20T18:42:58.598Z,9.90
2023-03-20T18:45:28.120Z,9.65
2023-03-20T18:47:57.138Z,9.50
2023-03-20T18:50:27.786Z,8.93
2023-03-20T18:52:56.838Z,9.40
2023-03-20T18:55:25.821Z,9.65
2023-03-20T18:57:53.520Z,8.93
2023-03-20T19:00:23.266Z,10.10
2023-03-20T19:02:52.060Z,9.32
2023-03-20T19:05:20.431Z,9.07
2023-03-20T19:07:50.294Z,8.55
2023-03-20T19:10:27.314Z,8.85
2023-03-20T19:12:56.590Z,9.87
2023-03-20T19:15:29.529Z,8.50
2023-03-20T19:17:58.361Z,8.32
2023-03-20T19:20:36.142Z,8.32
2023-03-20T19:23:07.054Z,8.55
2023-03-20T19:25:36.285Z,8.05
2023-03-20T19:28:05.479Z,8.77
2023-03-20T19:30:35.125Z,7.93
2023-03-20T19:33:03.605Z,7.30
2023-03-20T19:36:02.360Z,7.20
2023-03-20T19:38:22.939Z,7.70
2023-03-20T19:40:53.048Z,7.68
2023-03-20T19:43:21.780Z,7.50
2023-03-20T19:45:51.943Z,7.50
2023-03-20T19:48:21.080Z,7.10
2023-03-20T19:50:51.212Z,6.60
2023-03-20T19:53:21.426Z,6.50
2023-03-20T19:55:50.717Z,6.32
2023-03-20T19:58:18.655Z,6.67
2023-03-20T20:01:12.177Z,6.68
2023-03-20T20:03:38.035Z,6.40
2023-03-20T20:06:06.113Z,6.20
2023-03-20T20:08:46.922Z,6.90
2023-03-20T20:11:17.599Z,5.88
2023-03-20T20:14:07.114Z,6.68
2023-03-20T20:16:34.848Z,6.25
2023-03-20T20:19:02.679Z,7.03
2023-03-20T20:24:18.148Z,6.00
2023-03-20T20:26:55.477Z,6.28
2023-03-20T20:29:31.236Z,5.93
2023-03-20T20:32:01.770Z,6.22
2023-03-20T20:40:06.455Z,6.05
2023-03-20T20:42:37.081Z,6.15
2023-03-20T20:45:05.894Z,6.47
2023-03-20T20:47:33.859Z,5.90
2023-03-20T20:50:03.870Z,6.17
2023-03-20T20:52:31.688Z,6.13
2023-03-20T20:55:18.195Z,5.78
2023-03-20T20:57:49.351Z,5.70
2023-03-20T21:00:18.421Z,5.80
2023-03-20T21:02:46.213Z,5.60
2023-03-20T21:05:15.291Z,5.05
2023-03-20T21:07:44.115Z,5.70
2023-03-20T21:10:14.197Z,5.05
2023-03-20T21:12:57.782Z,4.85
2023-03-20T21:15:27.572Z,5.80
2023-03-20T21:18:01.234Z,5.30
2023-03-20T21:20:30.064Z,5.35
2023-03-20T21:22:57.733Z,5.40
2023-03-20T21:25:39.287Z,5.23
2023-03-20T21:28:08.790Z,6.38
2023-03-20T21:30:44.136Z,5.32
2023-03-20T21:33:18.706Z,5.55
2023-03-20T21:35:46.586Z,5.63
2023-03-20T21:41:08.566Z,5.88
2023-03-20T21:43:36.260Z,5.47
2023-03-20T21:46:37.486Z,5.68
2023-03-20T21:55:05.903Z,5.72
2023-03-20T21:57:55.679Z,6.10
2023-03-20T22:02:59.630Z,6.43
2023-03-20T22:09:19.835Z,5.90
2023-03-20T22:14:54.627Z,5.53
2023-03-20T22:23:15.225Z,6.55
2023-03-20T22:25:53.011Z,6.07
2023-03-20T22:40:03.243Z,7.03
2023-03-20T22:45:00.575Z,6.70
2023-03-20T22:47:30.468Z,6.53
2023-03-20T22:49:58.155Z,6.85
2023-03-20T22:52:38.339Z,6.77
2023-03-20T22:55:14.896Z,7.07
2023-03-20T22:57:53.025Z,6.78
2023-03-20T23:00:30.614Z,6.68
2023-03-20T23:03:11.471Z,6.72
2023-03-20T23:05:43.441Z,6.80
2023-03-20T23:08:13.152Z,6.97
2023-03-20T23:10:43.986Z,6.80
2023-03-20T23:13:11.772Z,7.68
2023-03-20T23:15:39.628Z,7.28
2023-03-20T23:18:07.703Z,7.43
2023-03-20T23:20:36.405Z,6.80
2023-03-20T23:23:04.181Z,7.47
2023-03-20T23:25:39.296Z,7.13
2023-03-20T23:28:08.468Z,7.38
2023-03-20T23:31:07.368Z,7.57
2023-03-20T23:33:24.345Z,7.32
2023-03-20T23:36:01.207Z,7.28
2023-03-20T23:38:32.933Z,7.75
2023-03-20T23:41:01.990Z,7.40
2023-03-20T23:43:29.991Z,8.15
2023-03-20T23:45:57.889Z,8.25
2023-03-20T23:48:25.926Z,8.50
2023-03-20T23:50:53.920Z,8.33
2023-03-20T23:53:21.641Z,8.00
2023-03-20T23:58:16.937Z,7.70
